Time;durP1;ratioP1;P1;durP2;ratioP2;P2;SDS_P1;SDS_P2;PMS_P1;PMS_P2;Temp;Humidity;BMP_temperature;BMP_pressure;BME280_temperature;BME280_humidity;BME280_pressure;Samples;Min_cycle;Max_cycle;Signal;HPM_P1;HPM_P2
2023/10/17 00:00:53;;;;;;;9.80;4.10;;;;;4.70;96527.00;;;;8372974;28;20323;-67
2023/10/17 00:04:59;;;;;;;7.63;3.97;;;;;4.70;96520.00;;;;8374098;28;20220;-67
2023/10/17 00:09:05;;;;;;;6.43;3.80;;;;;4.70;96517.00;;;;8382186;28;20269;-66
2023/10/17 00:13:38;;;;;;;7.30;4.33;;;;;4.70;96519.00;;;;8377627;28;20207;-67
2023/10/17 00:17:42;;;;;;;7.23;4.13;;;;;4.60;96512.00;;;;8376119;28;20200;-67
2023/10/17 00:21:45;;;;;;;7.70;4.07;;;;;4.60;96507.00;;;;8374897;28;20215;-67
2023/10/17 00:25:49;;;;;;;7.77;4.43;;;;;4.60;96499.00;;;;8384968;28;20199;-66
2023/10/17 00:29:52;;;;;;;6.60;4.30;;;;;4.70;96497.00;;;;8377291;28;20766;-66
2023/10/17 00:33:57;;;;;;;7.03;4.27;;;;;4.60;96496.00;;;;8369204;28;20227;-66
2023/10/17 00:38:05;;;;;;;6.17;3.83;;;;;4.60;96496.00;;;;8377189;28;20590;-66
2023/10/17 00:46:29;;;;;;;10.90;4.77;;;;;4.50;96499.00;;;;8372290;28;20625;-64
2023/10/17 00:50:41;;;;;;;5.23;4.37;;;;;4.50;96509.00;;;;8366811;28;20227;-65
2023/10/17 00:54:49;;;;;;;7.10;4.17;;;;;4.50;96505.00;;;;8371737;28;20195;-67
2023/10/17 00:58:57;;;;;;;9.00;4.50;;;;;4.60;96501.00;;;;8407251;28;20242;-66
2023/10/17 01:03:02;;;;;;;6.73;4.33;;;;;4.60;96496.00;;;;8381004;28;21434;-67
2023/10/17 01:07:07;;;;;;;8.17;4.57;;;;;4.50;96491.00;;;;8375119;28;20546;-65
2023/10/17 01:11:15;;;;;;;5.67;3.93;;;;;4.50;96492.00;;;;8378075;28;20277;-66
2023/10/17 01:15:21;;;;;;;7.20;4.00;;;;;4.40;96476.00;;;;8382381;28;20209;-67
2023/10/17 01:19:26;;;;;;;5.60;4.40;;;;;4.40;96479.00;;;;8388567;28;20230;-64
2023/10/17 01:23:31;;;;;;;5.00;4.33;;;;;4.40;96473.00;;;;8374753;28;20634;-65
2023/10/17 01:27:38;;;;;;;9.47;4.40;;;;;4.30;96492.00;;;;8380217;28;20622;-65
2023/10/17 01:31:43;;;;;;;8.40;4.23;;;;;4.30;96485.00;;;;8386164;28;20223;-65
2023/10/17 01:35:46;;;;;;;6.57;4.70;;;;;4.30;96474.00;;;;8379597;28;20199;-67
2023/10/17 01:39:49;;;;;;;9.87;4.17;;;;;4.30;96463.00;;;;8378897;28;20682;-65
2023/10/17 01:43:53;;;;;;;15.10;5.00;;;;;4.20;96460.00;;;;8382017;28;20196;-67
2023/10/17 01:47:58;;;;;;;9.63;4.80;;;;;4.10;96465.00;;;;8385429;28;20295;-67
2023/10/17 01:52:02;;;;;;;9.40;4.70;;;;;4.10;96461.00;;;;8375845;28;20316;-66
2023/10/17 01:56:15;;;;;;;12.93;4.77;;;;;4.00;96464.00;;;;8381368;28;20370;-66
2023/10/17 02:00:37;;;;;;;10.17;5.00;;;;;3.90;96464.00;;;;8377069;28;20288;-66
2023/10/17 02:04:40;;;;;;;8.07;4.67;;;;;3.80;96462.00;;;;8375553;28;21081;-64
2023/10/17 02:08:44;;;;;;;6.47;4.40;;;;;3.70;96451.00;;;;8376977;28;20243;-65
2023/10/17 02:12:48;;;;;;;9.17;4.37;;;;;3.40;96464.00;;;;8377151;28;20238;-65
2023/10/17 02:16:55;;;;;;;5.83;4.07;;;;;3.40;96451.00;;;;8375472;28;20204;-66
2023/10/17 02:21:04;;;;;;;7.43;5.07;;;;;3.40;96449.00;;;;8370543;28;20257;-65
2023/10/17 02:25:14;;;;;;;7.70;5.07;;;;;3.40;96440.00;;;;8376454;28;20704;-65
2023/10/17 02:29:23;;;;;;;10.07;5.20;;;;;3.40;96453.00;;;;8377770;28;20311;-66
2023/10/17 02:33:29;;;;;;;9.17;5.23;;;;;3.50;96441.00;;;;8375330;28;20558;-66
2023/10/17 02:37:32;;;;;;;7.57;4.77;;;;;3.50;96438.00;;;;8378842;28;20198;-66
2023/10/17 02:41:37;;;;;;;8.80;4.57;;;;;3.50;96437.00;;;;8380140;28;20200;-66
2023/10/17 02:45:41;;;;;;;8.57;5.23;;;;;3.60;96438.00;;;;8369934;28;20207;-66
2023/10/17 02:49:46;;;;;;;10.73;4.90;;;;;3.60;96432.00;;;;8367615;28;20220;-65
2023/10/17 02:53:53;;;;;;;10.23;4.43;;;;;3.60;96437.00;;;;8376150;28;20236;-66
2023/10/17 02:57:56;;;;;;;6.73;4.47;;;;;3.60;96434.00;;;;8377237;28;20249;-65
2023/10/17 03:02:05;;;;;;;6.27;4.10;;;;;3.40;96423.00;;;;8363078;23;20316;-95
2023/10/17 03:06:16;;;;;;;6.97;4.00;;;;;3.10;96425.00;;;;8310622;28;20204;-96
2023/10/17 03:10:36;;;;;;;8.03;4.43;;;;;2.90;96431.00;;;;8308778;28;20256;-95
2023/10/17 03:15:17;;;;;;;7.03;4.47;;;;;2.70;96430.00;;;;8309581;28;20199;-96
2023/10/17 03:19:06;;;;;;;6.43;3.73;;;;;2.50;96445.00;;;;8311654;28;20203;-96
2023/10/17 03:23:11;;;;;;;11.23;4.30;;;;;2.30;96426.00;;;;8310762;28;20252;-95
2023/10/17 03:27:26;;;;;;;5.37;3.90;;;;;2.10;96441.00;;;;8312124;28;20201;-96
2023/10/17 03:31:38;;;;;;;7.03;4.33;;;;;1.90;96440.00;;;;8313436;28;20236;-96
2023/10/17 03:36:28;;;;;;;4.23;3.40;;;;;1.70;96435.00;;;;8312564;28;20253;-96
2023/10/17 03:40:40;;;;;;;9.80;4.50;;;;;1.60;96438.00;;;;8315435;28;20210;-96
2023/10/17 03:44:56;;;;;;;9.57;5.07;;;;;1.60;96436.00;;;;8316131;28;20641;-96
2023/10/17 03:49:04;;;;;;;7.07;4.20;;;;;1.50;96433.00;;;;8316796;28;20212;-96
2023/10/17 03:53:15;;;;;;;5.47;3.80;;;;;1.40;96436.00;;;;8324060;23;20591;-65
2023/10/17 03:57:25;;;;;;;6.70;4.00;;;;;1.30;96421.00;;;;8277063;28;20199;-63
2023/10/17 04:01:29;;;;;;;8.73;5.13;;;;;1.20;96429.00;;;;8271394;28;20249;-64
2023/10/17 04:05:33;;;;;;;9.83;4.07;;;;;1.20;96438.00;;;;8242311;28;20603;-65
2023/10/17 04:09:46;;;;;;;8.60;4.10;;;;;1.20;96452.00;;;;8246379;28;20223;-64
2023/10/17 04:13:52;;;;;;;5.07;3.80;;;;;1.10;96443.00;;;;8245938;28;20230;-64
2023/10/17 04:17:58;;;;;;;8.83;4.30;;;;;1.10;96443.00;;;;8243752;28;20232;-64
2023/10/17 04:22:08;;;;;;;8.37;4.30;;;;;1.10;96439.00;;;;8243482;28;20212;-64
2023/10/17 04:26:27;;;;;;;13.60;4.47;;;;;1.10;96427.00;;;;8233729;28;20220;-64
2023/10/17 04:30:35;;;;;;;7.03;4.20;;;;;1.10;96415.00;;;;8244236;28;20260;-63
2023/10/17 04:34:46;;;;;;;7.83;4.73;;;;;1.10;96421.00;;;;8234142;28;20312;-62
2023/10/17 04:39:10;;;;;;;7.97;4.93;;;;;1.00;96416.00;;;;8242266;28;20204;-63
2023/10/17 04:47:32;;;;;;;9.40;4.57;;;;;0.90;96419.00;;;;8249911;28;20209;-63
2023/10/17 04:51:42;;;;;;;9.33;4.80;;;;;0.90;96417.00;;;;8249158;28;20227;-62
2023/10/17 04:56:09;;;;;;;8.87;4.13;;;;;0.90;96413.00;;;;8245901;28;20708;-62
2023/10/17 05:00:15;;;;;;;6.80;4.67;;;;;0.90;96405.00;;;;8243380;28;20356;-62
2023/10/17 05:04:21;;;;;;;9.13;4.97;;;;;0.90;96397.00;;;;8243790;28;20221;-62
2023/10/17 05:08:32;;;;;;;10.43;5.07;;;;;1.00;96406.00;;;;8246116;28;20208;-62
2023/10/17 06:17:54;;;;;;;12.40;4.90;;;;;3.00;96453.00;;;;8252282;28;20243;-63
2023/10/17 06:31:32;;;;;;;13.00;7.70;;;;;3.10;96468.00;;;;8242090;28;20235;-62
2023/10/17 06:35:23;;;;;;;11.37;5.33;;;;;3.20;96475.00;;;;8246153;28;20202;-63
2023/10/17 06:39:36;;;;;;;14.83;5.97;;;;;3.40;96472.00;;;;8246385;28;20211;-62
2023/10/17 06:43:46;;;;;;;10.27;5.97;;;;;3.60;96467.00;;;;8247390;28;20254;-62
2023/10/17 06:47:56;;;;;;;8.97;5.50;;;;;3.80;96467.00;;;;8253208;28;20209;-62
2023/10/17 06:52:18;;;;;;;9.60;5.10;;;;;3.90;96467.00;;;;8252205;28;20232;-63
2023/10/17 06:56:25;;;;;;;9.27;4.33;;;;;4.10;96478.00;;;;8244265;28;20207;-63
2023/10/17 07:00:42;;;;;;;9.13;5.50;;;;;4.20;96477.00;;;;8249045;28;20290;-63
2023/10/17 07:04:49;;;;;;;7.23;4.67;;;;;4.30;96470.00;;;;8244556;28;20903;-63
2023/10/17 07:08:53;;;;;;;7.87;4.30;;;;;4.40;96475.00;;;;8246765;28;20322;-63
2023/10/17 07:13:31;;;;;;;9.50;4.57;;;;;4.50;96476.00;;;;8250608;28;20226;-63
2023/10/17 07:17:43;;;;;;;9.73;4.60;;;;;4.60;96486.00;;;;8247489;28;21031;-63
2023/10/17 07:21:57;;;;;;;8.50;4.50;;;;;4.70;96489.00;;;;8250333;28;20203;-63
2023/10/17 07:26:01;;;;;;;6.17;4.07;;;;;4.90;96484.00;;;;8250149;28;20293;-63
2023/10/17 07:30:13;;;;;;;6.37;4.47;;;;;4.90;96476.00;;;;8251133;28;20203;-64
2023/10/17 07:34:21;;;;;;;8.43;4.70;;;;;5.00;96483.00;;;;8241315;28;20202;-64
2023/10/17 07:38:28;;;;;;;9.73;4.47;;;;;5.10;96484.00;;;;8251138;28;20477;-64
2023/10/17 07:42:31;;;;;;;8.07;4.80;;;;;5.20;96477.00;;;;8249946;28;20206;-63
2023/10/17 07:46:34;;;;;;;8.57;4.60;;;;;5.40;96476.00;;;;8248962;28;20226;-64
2023/10/17 07:50:40;;;;;;;8.53;4.30;;;;;5.50;96466.00;;;;8248540;28;20588;-63
2023/10/17 07:54:55;;;;;;;6.00;3.97;;;;;5.60;96463.00;;;;8248495;28;20228;-63
2023/10/17 07:59:04;;;;;;;7.00;3.73;;;;;5.80;96473.00;;;;8247690;28;20234;-65
2023/10/17 08:03:14;;;;;;;8.03;4.33;;;;;5.90;96471.00;;;;8246527;28;20670;-64
2023/10/17 08:07:20;;;;;;;7.57;4.20;;;;;6.10;96477.00;;;;8246704;28;20230;-63
2023/10/17 08:11:28;;;;;;;8.43;4.70;;;;;6.20;96479.00;;;;8245724;28;20225;-64
2023/10/17 08:15:37;;;;;;;13.60;4.70;;;;;6.40;96476.00;;;;8249218;28;20241;-64
2023/10/17 08:23:57;;;;;;;7.37;4.40;;;;;6.60;96479.00;;;;8244881;28;20241;-64
2023/10/17 08:28:04;;;;;;;6.27;3.70;;;;;6.80;96483.00;;;;8246753;28;20297;-63
2023/10/17 08:32:29;;;;;;;7.20;4.13;;;;;6.90;96480.00;;;;8247716;28;20230;-64
2023/10/17 08:36:42;;;;;;;7.33;4.47;;;;;7.00;96476.00;;;;8244123;28;20228;-64
2023/10/17 08:40:49;;;;;;;5.27;3.60;;;;;7.10;96476.00;;;;8243650;28;20198;-64
2023/10/17 08:44:59;;;;;;;8.47;4.80;;;;;7.10;96488.00;;;;8246819;28;20227;-64
2023/10/17 08:49:04;;;;;;;6.13;3.90;;;;;7.20;96491.00;;;;8245443;28;20198;-64
2023/10/17 08:53:13;;;;;;;7.60;4.27;;;;;7.30;96485.00;;;;8247958;28;20312;-63
2023/10/17 08:57:16;;;;;;;9.03;3.97;;;;;7.30;96483.00;;;;8240781;28;20203;-63
2023/10/17 09:01:21;;;;;;;9.03;4.30;;;;;7.40;96476.00;;;;8244145;28;20206;-63
2023/10/17 09:05:27;;;;;;;9.50;4.67;;;;;7.50;96477.00;;;;8244861;28;20203;-63
2023/10/17 09:09:33;;;;;;;9.23;4.57;;;;;7.60;96486.00;;;;8243012;28;20199;-63
2023/10/17 09:18:13;;;;;;;10.17;4.27;;;;;7.80;96475.00;;;;8135166;29;20297;-63
2023/10/17 09:22:18;;;;;;;9.87;4.33;;;;;8.00;96487.00;;;;8187507;28;20210;-63
2023/10/17 09:26:21;;;;;;;8.57;4.40;;;;;8.20;96492.00;;;;8240183;28;20537;-63
2023/10/17 09:30:26;;;;;;;6.67;4.00;;;;;8.40;96485.00;;;;8245069;28;20677;-63
2023/10/17 09:34:32;;;;;;;4.97;3.80;;;;;8.50;96479.00;;;;8241631;28;20222;-63
2023/10/17 09:38:41;;;;;;;4.70;3.53;;;;;8.70;96478.00;;;;8241226;28;20210;-63
2023/10/17 09:42:46;;;;;;;7.20;4.13;;;;;8.90;96469.00;;;;8247134;28;20206;-63
2023/10/17 09:46:54;;;;;;;6.22;4.05;;;;;9.10;96459.00;;;;8248668;28;20242;-63
2023/10/17 09:51:01;;;;;;;5.60;4.30;;;;;9.10;96462.00;;;;8249514;28;20627;-64
2023/10/17 09:55:06;;;;;;;6.18;3.85;;;;;9.40;96452.00;;;;8250510;28;20293;-65
2023/10/17 09:59:16;;;;;;;7.65;4.05;;;;;9.50;96456.00;;;;8250806;28;20199;-64
2023/10/17 10:03:22;;;;;;;4.90;3.97;;;;;9.60;96457.00;;;;8251845;28;20322;-64
2023/10/17 10:07:26;;;;;;;7.40;4.18;;;;;9.70;96451.00;;;;8250699;28;20196;-64
2023/10/17 10:11:55;;;;;;;5.90;4.03;;;;;9.90;96458.00;;;;8257084;28;20228;-65
2023/10/17 10:16:01;;;;;;;5.43;4.03;;;;;10.00;96447.00;;;;8250636;28;20288;-65
2023/10/17 10:20:08;;;;;;;6.05;4.07;;;;;10.20;96460.00;;;;8252948;28;20264;-65
2023/10/17 10:24:18;;;;;;;6.30;4.00;;;;;10.40;96450.00;;;;8248713;28;20200;-66
2023/10/17 10:28:31;;;;;;;7.32;4.05;;;;;10.50;96445.00;;;;8252179;28;20600;-65
2023/10/17 10:32:40;;;;;;;6.10;3.97;;;;;10.80;96443.00;;;;8250445;28;20240;-66
2023/10/17 10:36:44;;;;;;;5.20;3.65;;;;;11.00;96445.00;;;;8250890;28;20208;-65
2023/10/17 10:40:48;;;;;;;5.65;4.15;;;;;11.00;96436.00;;;;8252316;28;20293;-66
2023/10/17 10:44:51;;;;;;;6.80;3.55;;;;;11.10;96429.00;;;;8248094;28;20204;-66
2023/10/17 10:48:56;;;;;;;5.80;4.05;;;;;11.20;96422.00;;;;8244259;28;20200;-66
2023/10/17 10:53:02;;;;;;;4.63;3.30;;;;;11.30;96433.00;;;;8246074;28;20250;-67
2023/10/17 10:57:06;;;;;;;8.27;4.47;;;;;11.40;96436.00;;;;8246493;28;20207;-67
2023/10/17 11:01:09;;;;;;;6.05;3.40;;;;;11.60;96441.00;;;;8251245;28;20228;-66
2023/10/17 11:05:15;;;;;;;6.25;4.13;;;;;11.90;96437.00;;;;8250511;28;20209;-67
2023/10/17 11:09:24;;;;;;;5.47;3.80;;;;;12.10;96426.00;;;;8246298;28;20893;-68
2023/10/17 11:13:38;;;;;;;9.70;3.95;;;;;12.00;96426.00;;;;8248976;28;20971;-67
2023/10/17 11:17:42;;;;;;;5.90;4.00;;;;;12.00;96423.00;;;;8247563;28;20283;-66
2023/10/17 11:21:45;;;;;;;5.30;3.63;;;;;12.10;96426.00;;;;8247471;28;20474;-67
2023/10/17 11:25:49;;;;;;;8.27;4.15;;;;;12.00;96418.00;;;;8247750;28;20206;-68
2023/10/17 11:29:59;;;;;;;4.28;3.85;;;;;12.00;96413.00;;;;8246058;28;20717;-67
2023/10/17 11:34:04;;;;;;;6.10;3.75;;;;;12.00;96425.00;;;;8247113;28;20234;-67
2023/10/17 11:38:22;;;;;;;7.78;3.75;;;;;11.90;96414.00;;;;8248125;28;20317;-65
2023/10/17 11:42:33;;;;;;;9.90;4.10;;;;;12.10;96401.00;;;;8245416;28;20208;-67
2023/10/17 11:46:38;;;;;;;5.57;4.18;;;;;12.00;96407.00;;;;8246277;28;21098;-65
2023/10/17 11:50:42;;;;;;;6.03;4.18;;;;;11.90;96410.00;;;;8234203;28;20751;-65
2023/10/17 11:54:56;;;;;;;6.10;4.18;;;;;11.90;96384.00;;;;8237993;28;20236;-67
2023/10/17 11:59:02;;;;;;;9.65;3.88;;;;;11.80;96388.00;;;;8237916;28;20205;-66
2023/10/17 12:03:07;;;;;;;8.18;3.90;;;;;11.90;96376.00;;;;8243168;28;20233;-67
2023/10/17 12:07:11;;;;;;;7.32;4.40;;;;;11.80;96379.00;;;;8245604;28;20276;-67
2023/10/17 12:11:14;;;;;;;8.73;4.25;;;;;12.00;96377.00;;;;8245389;28;20208;-68
2023/10/17 12:15:20;;;;;;;7.00;3.78;;;;;12.00;96364.00;;;;8245622;28;20234;-67
2023/10/17 12:19:27;;;;;;;12.32;4.45;;;;;12.00;96367.00;;;;8249785;28;20207;-69
2023/10/17 12:23:31;;;;;;;6.38;3.97;;;;;12.00;96365.00;;;;8244113;28;20693;-69
2023/10/17 12:27:34;;;;;;;5.90;3.78;;;;;11.90;96378.00;;;;8246784;28;20221;-69
2023/10/17 12:31:39;;;;;;;9.75;3.80;;;;;11.90;96387.00;;;;8246871;28;20206;-69
2023/10/17 12:35:46;;;;;;;5.22;3.85;;;;;11.80;96378.00;;;;8247665;28;20572;-67
2023/10/17 12:39:49;;;;;;;9.35;4.10;;;;;11.90;96376.00;;;;8246085;28;20778;-69
2023/10/17 12:43:52;;;;;;;7.15;4.10;;;;;12.00;96379.00;;;;8243651;28;20294;-69
2023/10/17 12:47:57;;;;;;;7.03;4.18;;;;;12.10;96398.00;;;;8246101;28;20229;-66
2023/10/17 12:52:01;;;;;;;7.20;3.15;;;;;12.20;96403.00;;;;8248234;28;20256;-69
2023/10/17 12:56:06;;;;;;;6.18;3.20;;;;;12.30;96397.00;;;;8242992;28;20273;-68
2023/10/17 13:00:11;;;;;;;4.28;3.70;;;;;12.30;96390.00;;;;8242757;28;20218;-66
2023/10/17 13:04:14;;;;;;;5.50;3.90;;;;;12.40;96387.00;;;;8246655;28;20218;-69
2023/10/17 13:08:19;;;;;;;4.03;3.33;;;;;12.40;96368.00;;;;8246652;28;20229;-71
2023/10/17 13:12:22;;;;;;;5.90;3.45;;;;;12.40;96352.00;;;;8245059;28;20265;-69
2023/10/17 13:16:27;;;;;;;6.40;3.50;;;;;12.30;96353.00;;;;8244268;28;20199;-69
2023/10/17 13:20:32;;;;;;;7.65;3.90;;;;;12.20;96346.00;;;;8241427;28;20266;-67
2023/10/17 13:24:56;;;;;;;5.50;3.70;;;;;12.00;96343.00;;;;8245356;28;20202;-66
2023/10/17 13:28:59;;;;;;;7.38;3.95;;;;;11.90;96354.00;;;;8248432;28;20211;-67
2023/10/17 13:33:04;;;;;;;8.80;3.38;;;;;11.90;96367.00;;;;8243463;28;20332;-69
2023/10/17 13:37:09;;;;;;;6.32;4.35;;;;;12.00;96363.00;;;;8242713;28;20202;-68
2023/10/17 13:41:16;;;;;;;10.40;3.72;;;;;11.90;96381.00;;;;8243846;28;20203;-69
2023/10/17 13:45:21;;;;;;;7.30;3.90;;;;;11.80;96365.00;;;;8242371;28;20212;-69
2023/10/17 13:49:24;;;;;;;7.60;3.88;;;;;11.80;96350.00;;;;8240299;28;20209;-69
2023/10/17 13:53:31;;;;;;;7.05;3.97;;;;;11.70;96360.00;;;;8243594;28;20243;-67
2023/10/17 13:57:36;;;;;;;8.45;4.20;;;;;11.70;96340.00;;;;8244361;28;20206;-67
2023/10/17 14:01:42;;;;;;;8.95;3.78;;;;;11.70;96349.00;;;;8241985;28;20812;-70
2023/10/17 14:05:47;;;;;;;9.15;3.95;;;;;11.80;96358.00;;;;8243161;28;20198;-68
2023/10/17 14:09:55;;;;;;;6.20;3.28;;;;;11.90;96339.00;;;;8245028;28;20205;-67
2023/10/17 14:14:00;;;;;;;8.32;3.70;;;;;11.80;96329.00;;;;8242008;28;20265;-69
2023/10/17 14:18:13;;;;;;;6.57;3.53;;;;;11.70;96320.00;;;;8243875;28;20297;-68
2023/10/17 14:22:33;;;;;;;4.35;3.75;;;;;11.60;96307.00;;;;8240537;28;20206;-70
2023/10/17 14:26:37;;;;;;;5.93;3.38;;;;;11.50;96313.00;;;;8243463;28;20187;-68
2023/10/17 14:30:42;;;;;;;10.15;3.80;;;;;11.30;96294.00;;;;8234950;28;20220;-68
2023/10/17 14:34:45;;;;;;;5.82;3.53;;;;;11.40;96299.00;;;;8239898;28;20227;-69
2023/10/17 14:38:49;;;;;;;8.73;4.30;;;;;11.30;96288.00;;;;8250549;28;20926;-68
2023/10/17 14:42:53;;;;;;;5.78;3.72;;;;;11.30;96301.00;;;;8248695;28;20931;-68
2023/10/17 14:46:58;;;;;;;5.57;3.78;;;;;11.20;96311.00;;;;8238963;28;20219;-70
2023/10/17 14:51:02;;;;;;;6.20;3.92;;;;;11.10;96306.00;;;;8243057;28;20303;-70
2023/10/17 14:55:10;;;;;;;4.70;3.88;;;;;11.20;96292.00;;;;8240672;28;20322;-69
2023/10/17 14:59:13;;;;;;;12.18;5.18;;;;;11.20;96292.00;;;;8241176;28;20206;-68
2023/10/17 15:03:18;;;;;;;8.90;4.70;;;;;11.30;96302.00;;;;8241252;28;20357;-68
2023/10/17 15:07:22;;;;;;;5.30;4.53;;;;;11.20;96309.00;;;;8242733;28;20202;-67
2023/10/17 15:11:26;;;;;;;7.78;4.72;;;;;11.10;96296.00;;;;8244607;28;20691;-68
2023/10/17 15:15:31;;;;;;;7.95;4.55;;;;;10.90;96305.00;;;;8246072;28;20237;-69
2023/10/17 15:19:37;;;;;;;12.98;4.80;;;;;10.80;96307.00;;;;8248182;28;20668;-68
2023/10/17 15:23:41;;;;;;;9.88;4.38;;;;;10.70;96293.00;;;;8250162;28;20210;-69
2023/10/17 15:27:44;;;;;;;7.60;4.65;;;;;10.50;96295.00;;;;8247194;28;20206;-66
2023/10/17 15:31:52;;;;;;;7.55;4.13;;;;;10.30;96283.00;;;;8244342;28;20199;-68
2023/10/17 15:35:59;;;;;;;5.60;4.13;;;;;10.20;96289.00;;;;8242664;28;20735;-66
2023/10/17 15:40:02;;;;;;;7.53;4.70;;;;;10.10;96289.00;;;;8247146;28;20230;-67
2023/10/17 15:44:06;;;;;;;6.25;4.63;;;;;9.90;96300.00;;;;8244939;28;20197;-68
2023/10/17 15:48:09;;;;;;;8.18;5.05;;;;;9.80;96293.00;;;;8245897;28;20222;-66
2023/10/17 15:52:13;;;;;;;8.00;4.93;;;;;9.70;96299.00;;;;8248241;28;20589;-67
2023/10/17 15:56:17;;;;;;;9.52;6.40;;;;;9.50;96307.00;;;;8239794;28;20690;-65
2023/10/17 16:00:21;;;;;;;8.77;6.10;;;;;9.30;96319.00;;;;8247193;28;20898;-68
2023/10/17 16:04:25;;;;;;;10.68;6.63;;;;;9.20;96308.00;;;;8244869;28;20222;-68
2023/10/17 16:08:30;;;;;;;10.15;5.70;;;;;9.10;96301.00;;;;8247928;28;20254;-68
2023/10/17 16:12:33;;;;;;;8.35;5.70;;;;;8.90;96298.00;;;;8240367;28;20799;-66
2023/10/17 16:16:38;;;;;;;12.98;7.78;;;;;8.80;96313.00;;;;8242243;28;20930;-68
2023/10/17 16:20:42;;;;;;;11.77;6.25;;;;;8.60;96318.00;;;;8243748;28;20202;-67
2023/10/17 16:24:46;;;;;;;10.68;5.90;;;;;8.40;96321.00;;;;8244566;28;20905;-69
2023/10/17 16:28:50;;;;;;;17.98;6.30;;;;;8.30;96323.00;;;;8250540;28;20203;-69
2023/10/17 16:32:54;;;;;;;12.73;7.30;;;;;8.00;96326.00;;;;8249902;28;21002;-67
2023/10/17 16:36:57;;;;;;;16.83;8.77;;;;;7.70;96324.00;;;;8246589;28;20234;-69
2023/10/17 16:41:03;;;;;;;14.73;7.97;;;;;7.50;96321.00;;;;8247852;28;20210;-69
2023/10/17 16:45:08;;;;;;;17.40;8.60;;;;;7.20;96326.00;;;;8242283;28;20199;-71
2023/10/17 16:49:11;;;;;;;23.07;11.30;;;;;6.80;96323.00;;;;8249313;28;20207;-69
2023/10/17 16:53:15;;;;;;;24.03;11.10;;;;;6.70;96331.00;;;;8242192;28;20294;-68
2023/10/17 16:57:20;;;;;;;16.53;8.73;;;;;6.70;96334.00;;;;8243909;28;20222;-70
2023/10/17 17:01:24;;;;;;;16.07;7.70;;;;;6.60;96338.00;;;;8239061;28;20214;-66
2023/10/17 17:05:27;;;;;;;13.70;8.80;;;;;6.50;96334.00;;;;8244169;28;20195;-71
2023/10/17 17:09:30;;;;;;;14.87;8.07;;;;;6.40;96331.00;;;;8247035;28;20303;-68
2023/10/17 17:13:35;;;;;;;15.10;8.30;;;;;6.20;96344.00;;;;8239320;28;20198;-71
2023/10/17 17:17:39;;;;;;;16.07;9.77;;;;;6.10;96333.00;;;;8236894;28;20234;-70
2023/10/17 17:21:43;;;;;;;19.33;10.33;;;;;6.10;96331.00;;;;8243681;28;20289;-70
2023/10/17 17:25:46;;;;;;;18.67;8.10;;;;;6.20;96320.00;;;;8239685;28;20518;-68
2023/10/17 17:29:52;;;;;;;17.70;9.00;;;;;6.20;96331.00;;;;8240310;28;20285;-70
2023/10/17 17:33:55;;;;;;;12.67;7.90;;;;;6.20;96315.00;;;;8241001;28;20265;-70
2023/10/17 17:37:58;;;;;;;11.50;7.27;;;;;6.30;96308.00;;;;8241097;28;20208;-70
2023/10/17 17:42:02;;;;;;;16.70;7.73;;;;;6.30;96311.00;;;;8241315;28;20648;-70
2023/10/17 17:46:08;;;;;;;17.13;7.87;;;;;6.20;96313.00;;;;8243473;28;21049;-70
2023/10/17 17:50:11;;;;;;;10.47;6.10;;;;;6.20;96309.00;;;;8238355;28;21505;-65
2023/10/17 17:54:15;;;;;;;10.60;6.87;;;;;6.10;96304.00;;;;8246788;28;20942;-65
2023/10/17 17:58:19;;;;;;;15.27;7.20;;;;;5.90;96313.00;;;;8242158;28;20199;-66
2023/10/17 18:02:25;;;;;;;23.87;10.30;;;;;5.60;96305.00;;;;8251407;28;20218;-65
2023/10/17 18:06:29;;;;;;;20.70;9.33;;;;;5.50;96313.00;;;;8251901;28;20206;-64
2023/10/17 18:10:34;;;;;;;14.10;8.80;;;;;5.40;96301.00;;;;8248659;28;20717;-65
2023/10/17 18:14:37;;;;;;;13.67;7.20;;;;;5.40;96294.00;;;;8246908;28;20325;-64
2023/10/17 18:18:43;;;;;;;45.03;19.10;;;;;5.40;96293.00;;;;8253777;28;20214;-64
2023/10/17 18:22:47;;;;;;;17.07;8.83;;;;;5.40;96304.00;;;;8243012;28;20219;-62
2023/10/17 18:26:50;;;;;;;18.37;9.37;;;;;5.50;96303.00;;;;8250903;28;20202;-65
2023/10/17 18:30:54;;;;;;;14.10;8.27;;;;;5.60;96293.00;;;;8247879;28;20202;-65
2023/10/17 18:34:59;;;;;;;8.90;6.40;;;;;5.60;96279.00;;;;8249570;28;20245;-64
2023/10/17 18:39:03;;;;;;;9.40;5.93;;;;;5.60;96276.00;;;;8250062;28;20425;-64
2023/10/17 18:43:07;;;;;;;11.13;6.20;;;;;5.70;96286.00;;;;8246767;28;20651;-65
2023/10/17 18:47:11;;;;;;;10.40;6.20;;;;;5.60;96282.00;;;;8245006;28;20215;-65
2023/10/17 18:51:16;;;;;;;10.10;6.20;;;;;5.60;96278.00;;;;8244757;28;20195;-65
2023/10/17 18:55:19;;;;;;;13.27;6.60;;;;;5.70;96284.00;;;;8251031;28;20230;-64
2023/10/17 18:59:22;;;;;;;11.50;6.40;;;;;5.60;96279.00;;;;8246594;28;20223;-64
2023/10/17 19:03:25;;;;;;;11.20;7.17;;;;;5.60;96280.00;;;;8244462;28;20222;-64
2023/10/17 19:07:30;;;;;;;11.53;6.33;;;;;5.50;96276.00;;;;8248681;28;20210;-65
2023/10/17 19:11:33;;;;;;;16.93;8.03;;;;;5.50;96278.00;;;;8248325;28;20769;-64
2023/10/17 19:15:37;;;;;;;13.17;6.50;;;;;5.50;96277.00;;;;8243433;28;20230;-65
2023/10/17 19:19:40;;;;;;;10.30;7.13;;;;;5.50;96276.00;;;;8249293;28;20250;-65
2023/10/17 19:23:48;;;;;;;13.90;9.00;;;;;5.40;96272.00;;;;8236189;28;20199;-64
2023/10/17 19:27:52;;;;;;;12.10;6.73;;;;;5.30;96274.00;;;;8237603;28;20203;-64
2023/10/17 19:31:56;;;;;;;17.63;7.27;;;;;5.30;96271.00;;;;8241199;28;20227;-64
2023/10/17 19:35:59;;;;;;;10.17;6.60;;;;;5.40;96268.00;;;;8241711;28;20245;-64
2023/10/17 19:40:04;;;;;;;11.27;6.50;;;;;5.50;96276.00;;;;8241918;28;20214;-66
2023/10/17 19:44:08;;;;;;;11.97;7.10;;;;;5.50;96270.00;;;;8246514;28;20247;-65
2023/10/17 19:48:11;;;;;;;13.90;6.97;;;;;5.50;96270.00;;;;8244788;28;20286;-65
2023/10/17 19:52:15;;;;;;;10.43;7.00;;;;;5.50;96269.00;;;;8246113;28;20302;-64
2023/10/17 19:56:20;;;;;;;11.50;6.60;;;;;5.50;96264.00;;;;8244285;28;20230;-65
2023/10/17 20:00:23;;;;;;;9.80;6.43;;;;;5.50;96250.00;;;;8242090;28;20287;-66
2023/10/17 20:04:29;;;;;;;12.23;6.80;;;;;5.50;96272.00;;;;8238985;28;20213;-66
2023/10/17 20:08:32;;;;;;;13.30;6.73;;;;;5.40;96259.00;;;;8241555;28;20206;-65
2023/10/17 20:12:37;;;;;;;11.83;7.03;;;;;5.30;96252.00;;;;8246350;28;20294;-64
2023/10/17 20:16:40;;;;;;;11.40;6.43;;;;;5.30;96255.00;;;;8247828;28;20751;-64
2023/10/17 20:20:43;;;;;;;12.87;7.00;;;;;5.30;96256.00;;;;8246513;28;20210;-64
2023/10/17 20:24:47;;;;;;;11.73;7.23;;;;;5.30;96253.00;;;;8247284;28;20202;-63
2023/10/17 20:28:51;;;;;;;12.23;7.53;;;;;5.20;96253.00;;;;8242519;28;20978;-63
2023/10/17 20:32:55;;;;;;;17.37;8.07;;;;;5.20;96255.00;;;;8242235;28;20247;-63
2023/10/17 20:36:58;;;;;;;11.37;7.57;;;;;5.20;96263.00;;;;8242647;28;20804;-63
2023/10/17 20:41:02;;;;;;;12.87;7.37;;;;;5.20;96259.00;;;;8244956;28;20267;-64
2023/10/17 20:45:10;;;;;;;15.10;7.13;;;;;5.10;96247.00;;;;8246980;28;20853;-63
2023/10/17 20:49:15;;;;;;;12.10;7.13;;;;;5.00;96248.00;;;;8241037;28;21039;-63
2023/10/17 20:53:18;;;;;;;15.47;7.60;;;;;5.00;96252.00;;;;8247705;28;20217;-63
2023/10/17 20:57:21;;;;;;;12.17;6.97;;;;;4.90;96258.00;;;;8239865;28;20229;-63
2023/10/17 21:01:26;;;;;;;15.97;8.03;;;;;4.80;96252.00;;;;8239645;28;20306;-64
2023/10/17 21:05:34;;;;;;;13.87;8.70;;;;;4.60;96252.00;;;;8248588;28;20946;-64
2023/10/17 21:09:37;;;;;;;18.57;9.33;;;;;4.20;96255.00;;;;8246872;28;20647;-64
2023/10/17 21:13:40;;;;;;;18.23;9.77;;;;;3.90;96259.00;;;;8246420;28;20661;-64
2023/10/17 21:17:45;;;;;;;20.77;10.20;;;;;3.60;96253.00;;;;8241899;28;20233;-64
2023/10/17 21:21:48;;;;;;;22.87;10.23;;;;;3.40;96252.00;;;;8249628;28;20678;-64
2023/10/17 21:26:00;;;;;;;18.50;8.87;;;;;3.10;96245.00;;;;8243086;28;20271;-64
2023/10/17 21:30:05;;;;;;;23.60;10.27;;;;;3.00;96236.00;;;;8246211;28;20223;-64
2023/10/17 21:34:09;;;;;;;18.47;10.10;;;;;2.80;96232.00;;;;8244575;28;20246;-64
2023/10/17 21:38:13;;;;;;;17.20;8.80;;;;;2.60;96220.00;;;;8253508;28;20239;-64
2023/10/17 21:42:17;;;;;;;16.43;8.77;;;;;2.40;96209.00;;;;8251676;28;20195;-64
2023/10/17 21:46:20;;;;;;;15.67;8.27;;;;;2.30;96211.00;;;;8250425;28;20203;-64
2023/10/17 21:50:25;;;;;;;18.17;8.97;;;;;2.20;96205.00;;;;8255279;28;20203;-64
2023/10/17 21:54:28;;;;;;;23.80;8.60;;;;;2.20;96200.00;;;;8250983;28;20207;-63
2023/10/17 21:58:32;;;;;;;15.27;8.50;;;;;2.20;96192.00;;;;8250631;28;20640;-63
2023/10/17 22:02:36;;;;;;;16.63;8.63;;;;;2.20;96191.00;;;;8250811;28;20936;-64
2023/10/17 22:06:41;;;;;;;15.43;7.73;;;;;2.20;96185.00;;;;8248194;28;20301;-64
2023/10/17 22:10:44;;;;;;;17.20;8.80;;;;;2.60;96197.00;;;;8255281;28;20218;-64